createdAt,value
2018-09-28T00:00:55.468Z,4
2018-09-28T00:11:03.851Z,4
2018-09-28T00:21:10.956Z,3
2018-09-28T00:31:19.054Z,3
2018-09-28T00:41:27.900Z,4
2018-09-28T00:51:35.249Z,3
2018-09-28T01:01:41.635Z,4
2018-09-28T01:11:49.626Z,3
2018-09-28T01:21:58.891Z,3
2018-09-28T01:32:06.601Z,3
2018-09-28T01:42:15.152Z,3
2018-09-28T01:52:21.739Z,4
2018-09-28T02:02:30.943Z,3
2018-09-28T02:12:40.934Z,3
2018-09-28T02:22:47.978Z,4
2018-09-28T02:32:57.805Z,4
2018-09-28T02:43:07.565Z,4
2018-09-28T02:53:14.172Z,3
2018-09-28T03:03:22.855Z,3
2018-09-28T03:13:33.587Z,2
2018-09-28T03:23:40.332Z,2
2018-09-28T03:33:49.684Z,2
2018-09-28T03:43:58.218Z,3
2018-09-28T03:54:07.381Z,2
2018-09-28T04:04:14.548Z,2
2018-09-28T04:14:23.784Z,3
2018-09-28T04:24:31.665Z,3
2018-09-28T04:34:39.440Z,3
2018-09-28T04:35:23.427Z,4
2018-09-28T04:45:32.659Z,2
2018-09-28T04:55:40.169Z,2
2018-09-28T05:05:47.979Z,2
2018-09-28T05:15:56.032Z,3
2018-09-28T05:26:06.546Z,2
2018-09-28T05:31:37.376Z,2
2018-09-28T05:41:43.457Z,3
2018-09-28T05:51:51.329Z,3
2018-09-28T06:01:58.693Z,3
2018-09-28T06:12:06.362Z,3
2018-09-28T06:22:15.502Z,3
2018-09-28T06:32:25.158Z,2
2018-09-28T06:42:35.857Z,3
2018-09-28T06:52:41.287Z,17
2018-09-28T07:02:49.355Z,5
2018-09-28T07:12:57.831Z,2
2018-09-28T07:23:08.987Z,3
2018-09-28T07:33:16.652Z,3
2018-09-28T07:43:28.493Z,3
2018-09-28T07:53:36.447Z,4
2018-09-28T08:03:45.632Z,3
2018-09-28T08:05:57.949Z,5
2018-09-28T08:16:05.361Z,4
2018-09-28T08:26:12.612Z,4
2018-09-28T08:36:19.778Z,3
2018-09-28T08:46:30.835Z,4
2018-09-28T08:55:54.171Z,17
2018-09-28T09:05:58.765Z,7
2018-09-28T09:16:06.711Z,10
2018-09-28T09:26:15.707Z,9
2018-09-28T09:36:26.165Z,8
2018-09-28T09:46:34.309Z,6
2018-09-28T09:56:40.645Z,6
2018-09-28T10:06:48.662Z,7
2018-09-28T10:16:55.707Z,6
2018-09-28T10:27:04.595Z,7
2018-09-28T10:37:14.620Z,6
2018-09-28T10:43:32.015Z,6
2018-09-28T10:53:40.920Z,8
2018-09-28T11:03:49.010Z,7
2018-09-28T11:13:56.272Z,10
2018-09-28T11:24:04.341Z,7
2018-09-28T11:34:13.009Z,8
2018-09-28T11:44:19.566Z,9
2018-09-28T11:52:50.511Z,10
2018-09-28T12:02:58.873Z,8
2018-09-28T12:13:09.505Z,7
2018-09-28T12:23:16.023Z,7
2018-09-28T12:33:25.483Z,9
2018-09-28T12:43:36.950Z,8
2018-09-28T12:53:42.992Z,7
2018-09-28T13:03:53.188Z,9
2018-09-28T13:14:03.035Z,8
2018-09-28T13:24:11.840Z,7
2018-09-28T13:34:21.328Z,5
2018-09-28T13:44:31.755Z,7
2018-09-28T13:54:45.039Z,9
2018-09-28T13:56:01.285Z,7
2018-09-28T14:06:05.920Z,7
2018-09-28T14:26:25.426Z,6
2018-09-28T14:36:32.693Z,4
2018-09-28T14:46:43.677Z,7
2018-09-28T14:56:54.734Z,0
2018-09-28T15:07:04.191Z,10
2018-09-28T15:17:14.269Z,9
2018-09-28T15:27:21.489Z,10
2018-09-28T15:37:28.748Z,15
2018-09-28T15:47:39.587Z,12
2018-09-28T15:57:47.511Z,17
2018-09-28T16:07:56.479Z,11
2018-09-28T16:18:03.018Z,15
2018-09-28T16:28:13.485Z,18
2018-09-28T16:38:21.126Z,18
2018-09-28T16:48:28.114Z,17
2018-09-28T16:58:36.875Z,14
2018-09-28T17:08:45.488Z,27
2018-09-28T17:18:55.161Z,20
2018-09-28T17:29:04.614Z,32
2018-09-28T17:39:09.863Z,35
2018-09-28T17:49:18.705Z,19
2018-09-28T17:59:29.825Z,18
2018-09-28T18:09:37.469Z,21
2018-09-28T18:19:47.059Z,14
2018-09-28T18:29:56.693Z,11
2018-09-28T18:40:05.764Z,12
2018-09-28T18:51:53.999Z,12
2018-09-28T19:02:01.821Z,11
2018-09-28T19:12:12.284Z,15
2018-09-28T19:22:19.859Z,12
2018-09-28T19:32:27.426Z,13
2018-09-28T19:42:35.687Z,12
2018-09-28T20:02:53.183Z,14
2018-09-28T20:12:59.673Z,11
2018-09-28T20:23:08.105Z,15
2018-09-28T20:33:16.887Z,10
2018-09-28T20:43:24.978Z,11
2018-09-28T20:53:32.514Z,11
2018-09-28T21:03:42.536Z,11
2018-09-28T21:13:51.737Z,12
2018-09-28T21:23:59.245Z,12
2018-09-28T21:34:05.421Z,13
2018-09-28T21:44:14.317Z,13
2018-09-28T21:54:23.692Z,15
2018-09-28T22:04:32.517Z,13
2018-09-28T22:14:41.652Z,13
2018-09-28T22:24:48.254Z,13
2018-09-28T22:34:55.854Z,11
2018-09-28T22:45:03.226Z,14
2018-09-28T22:55:12.920Z,18
2018-09-28T23:05:21.690Z,15
2018-09-28T23:15:29.197Z,15
2018-09-28T23:25:37.059Z,40
2018-09-28T23:35:46.039Z,12
2018-09-28T23:45:53.057Z,13
2018-09-28T23:56:00.523Z,30
